createdAt,value
2023-05-21T00:00:40.048Z,100701.30
2023-05-21T00:04:12.410Z,100704.48
2023-05-21T00:06:47.046Z,100706.67
2023-05-21T00:10:09.329Z,100699.37
2023-05-21T00:13:09.358Z,100699.86
2023-05-21T00:16:13.769Z,100702.05
2023-05-21T00:19:25.306Z,100705.23
2023-05-21T00:22:07.223Z,100701.90
2023-05-21T00:24:57.321Z,100702.35
2023-05-21T00:28:07.472Z,100697.38
2023-05-21T00:31:03.804Z,100695.69
2023-05-21T00:33:35.932Z,100693.99
2023-05-21T00:36:40.980Z,100685.27
2023-05-21T00:39:41.933Z,100685.26
2023-05-21T00:42:27.521Z,100685.90
2023-05-21T00:45:16.222Z,100688.67
2023-05-21T00:47:59.367Z,100687.52
2023-05-21T00:51:03.319Z,100688.88
2023-05-21T00:53:58.430Z,100688.88
2023-05-21T00:56:57.910Z,100693.68
2023-05-21T01:00:04.807Z,100691.89
2023-05-21T01:03:00.448Z,100693.37
2023-05-21T01:05:51.235Z,100693.20
2023-05-21T01:09:05.618Z,100692.08
2023-05-21T01:12:01.451Z,100689.11
2023-05-21T01:14:53.353Z,100685.02
2023-05-21T01:17:40.318Z,100684.70
2023-05-21T01:20:49.511Z,100682.08
2023-05-21T01:23:53.401Z,100677.38
2023-05-21T01:26:50.972Z,100677.25
2023-05-21T01:29:32.658Z,100676.84
2023-05-21T01:32:50.323Z,100672.02
2023-05-21T01:36:03.326Z,100667.85
2023-05-21T01:39:09.714Z,100669.44
2023-05-21T01:42:15.221Z,100665.76
2023-05-21T01:45:19.767Z,100669.59
2023-05-21T01:48:30.030Z,100667.63
2023-05-21T01:51:24.838Z,100665.38
2023-05-21T01:54:14.917Z,100656.64
2023-05-21T01:57:27.864Z,100659.36
2023-05-21T02:00:18.359Z,100658.29
2023-05-21T02:03:04.504Z,100657.69
2023-05-21T02:05:55.963Z,100654.31
2023-05-21T02:08:55.148Z,100655.63
2023-05-21T02:11:48.017Z,100653.94
2023-05-21T02:14:39.085Z,100650.41
2023-05-21T02:17:56.410Z,100652.10
2023-05-21T02:20:49.123Z,100648.38
2023-05-21T02:23:44.111Z,100652.58
2023-05-21T02:27:11.578Z,100652.24
2023-05-21T02:29:51.242Z,100651.34
2023-05-21T02:32:46.219Z,100651.91
2023-05-21T02:36:02.055Z,100649.69
2023-05-21T02:38:46.178Z,100644.30
2023-05-21T02:41:38.517Z,100641.48
2023-05-21T02:44:48.755Z,100643.79
2023-05-21T02:47:33.897Z,100640.17
2023-05-21T02:50:23.296Z,100642.41
2023-05-21T02:53:17.895Z,100644.01
2023-05-21T02:55:55.489Z,100642.61
2023-05-21T02:58:51.313Z,100641.96
2023-05-21T03:01:48.213Z,100645.39
2023-05-21T03:04:28.824Z,100641.95
2023-05-21T03:07:14.500Z,100639.09
2023-05-21T03:10:21.709Z,100640.31
2023-05-21T03:13:09.559Z,100637.99
2023-05-21T03:15:41.922Z,100637.42
2023-05-21T03:18:29.480Z,100633.40
2023-05-21T03:21:16.241Z,100637.99
2023-05-21T03:23:49.929Z,100636.91
2023-05-21T03:26:50.600Z,100634.29
2023-05-21T03:29:47.653Z,100636.40
2023-05-21T03:32:37.426Z,100634.81
2023-05-21T03:35:19.810Z,100637.29
2023-05-21T03:38:11.106Z,100634.38
2023-05-21T03:40:48.836Z,100634.90
2023-05-21T03:43:45.588Z,100627.35
2023-05-21T03:46:29.078Z,100638.36
2023-05-21T03:49:38.053Z,100639.35
2023-05-21T03:52:16.660Z,100629.39
2023-05-21T03:54:56.716Z,100639.73
2023-05-21T03:57:32.730Z,100637.81
2023-05-21T04:00:01.677Z,100638.55
2023-05-21T04:02:37.824Z,100635.31
2023-05-21T04:05:18.889Z,100637.14
2023-05-21T04:07:50.306Z,100635.27
2023-05-21T04:10:29.161Z,100637.88
2023-05-21T04:13:01.287Z,100639.92
2023-05-21T04:15:36.930Z,100636.50
2023-05-21T04:18:13.977Z,100638.63
2023-05-21T04:21:21.937Z,100635.80
2023-05-21T04:24:00.976Z,100638.85
2023-05-21T04:26:50.477Z,100635.86
2023-05-21T04:29:34.039Z,100636.73
2023-05-21T04:32:18.373Z,100637.72
2023-05-21T04:34:47.413Z,100641.83
2023-05-21T04:37:28.346Z,100643.06
2023-05-21T04:39:58.564Z,100643.05
2023-05-21T04:42:36.980Z,100641.47
2023-05-21T04:45:12.919Z,100645.55
2023-05-21T04:47:48.296Z,100645.31
2023-05-21T04:50:17.965Z,100643.09
2023-05-21T04:52:56.999Z,100640.57
2023-05-21T04:55:26.432Z,100645.08
2023-05-21T04:57:59.748Z,100644.73
2023-05-21T05:00:28.438Z,100647.93
2023-05-21T05:02:57.275Z,100650.35
2023-05-21T05:05:26.378Z,100652.52
2023-05-21T05:07:58.652Z,100653.89
2023-05-21T05:10:30.088Z,100654.21
2023-05-21T05:13:04.727Z,100646.02
2023-05-21T05:15:33.510Z,100648.81
2023-05-21T05:18:02.637Z,100649.29
2023-05-21T05:20:31.605Z,100649.98
2023-05-21T05:23:00.435Z,100644.37
2023-05-21T05:25:28.973Z,100641.38
2023-05-21T05:28:00.650Z,100639.94
2023-05-21T05:30:30.137Z,100637.01
2023-05-21T05:33:06.343Z,100636.45
2023-05-21T05:35:35.529Z,100634.70
2023-05-21T05:38:04.205Z,100635.13
2023-05-21T05:40:35.744Z,100636.79
2023-05-21T05:43:07.295Z,100633.98
2023-05-21T05:45:37.445Z,100635.52
2023-05-21T05:48:11.124Z,100632.70
2023-05-21T05:50:39.890Z,100630.41
2023-05-21T05:53:09.101Z,100630.30
2023-05-21T05:55:40.514Z,100627.32
2023-05-21T05:58:09.536Z,100627.00
2023-05-21T06:00:50.129Z,100626.89
2023-05-21T06:03:20.110Z,100632.30
2023-05-21T06:05:50.510Z,100637.88
2023-05-21T06:08:19.255Z,100632.77
2023-05-21T06:10:47.818Z,100623.42
2023-05-21T06:13:16.747Z,100627.89
2023-05-21T06:15:45.432Z,100626.27
2023-05-21T06:18:14.594Z,100621.64
2023-05-21T06:20:46.088Z,100615.94
2023-05-21T06:23:16.690Z,100619.55
2023-05-21T06:25:46.891Z,100623.86
2023-05-21T06:28:18.028Z,100625.31
2023-05-21T06:30:46.744Z,100623.73
2023-05-21T06:33:16.461Z,100622.39
2023-05-21T06:35:46.959Z,100622.09
2023-05-21T06:38:16.087Z,100615.94
2023-05-21T06:40:47.628Z,100623.16
2023-05-21T06:43:20.395Z,100618.99
2023-05-21T06:46:07.767Z,100617.50
2023-05-21T06:48:39.990Z,100621.18
2023-05-21T06:51:09.190Z,100620.73
2023-05-21T06:53:38.810Z,100618.07
2023-05-21T06:56:07.775Z,100613.55
2023-05-21T06:58:39.373Z,100614.85
2023-05-21T07:01:08.284Z,100616.58
2023-05-21T07:03:37.480Z,100605.34
2023-05-21T07:06:06.955Z,100604.25
2023-05-21T07:08:35.628Z,100602.80
2023-05-21T07:11:06.967Z,100603.11
2023-05-21T07:13:37.432Z,100604.23
2023-05-21T07:16:06.905Z,100601.66
2023-05-21T07:18:35.930Z,100603.10
2023-05-21T07:21:04.996Z,100602.83
2023-05-21T07:23:35.553Z,100599.29
2023-05-21T07:26:05.039Z,100599.45
2023-05-21T07:28:34.593Z,100596.83
2023-05-21T07:31:03.876Z,100594.92
2023-05-21T07:33:36.930Z,100596.08
2023-05-21T07:36:06.420Z,100594.08
2023-05-21T07:38:35.631Z,100593.46
2023-05-21T07:41:04.638Z,100595.84
2023-05-21T07:43:34.025Z,100594.06
2023-05-21T07:46:03.132Z,100596.01
2023-05-21T07:48:34.708Z,100594.86
2023-05-21T07:51:04.981Z,100591.16
2023-05-21T07:53:33.789Z,100589.61
2023-05-21T07:56:04.308Z,100583.69
2023-05-21T07:58:35.482Z,100583.89
2023-05-21T08:01:04.345Z,100586.59
2023-05-21T08:03:34.208Z,100580.41
2023-05-21T08:06:04.201Z,100579.16
2023-05-21T08:08:33.892Z,100576.95
2023-05-21T08:11:02.670Z,100578.28
2023-05-21T08:13:32.241Z,100581.62
2023-05-21T08:16:00.903Z,100576.36
2023-05-21T08:18:29.447Z,100576.17
2023-05-21T08:20:59.056Z,100576.29
2023-05-21T08:23:27.543Z,100582.83
2023-05-21T08:25:57.337Z,100582.86
2023-05-21T08:28:27.992Z,100580.77
2023-05-21T08:30:56.880Z,100584.83
2023-05-21T08:33:26.078Z,100583.44
2023-05-21T08:35:54.576Z,100583.40
2023-05-21T08:38:46.180Z,100584.08
2023-05-21T08:41:22.550Z,100583.41
2023-05-21T08:43:57.846Z,100583.23
2023-05-21T08:46:32.692Z,100578.42
2023-05-21T08:49:04.239Z,100585.00
2023-05-21T08:51:34.187Z,100581.64
2023-05-21T08:54:05.032Z,100578.69
2023-05-21T08:56:34.887Z,100586.56
2023-05-21T08:59:03.840Z,100576.11
2023-05-21T09:01:35.939Z,100577.63
2023-05-21T09:04:22.115Z,100583.18
2023-05-21T09:06:55.082Z,100577.89
2023-05-21T09:09:53.565Z,100582.09
2023-05-21T09:12:22.950Z,100582.22
2023-05-21T09:14:52.474Z,100583.72
2023-05-21T09:17:25.371Z,100582.02
2023-05-21T09:20:17.178Z,100585.73
2023-05-21T09:22:51.767Z,100581.46
2023-05-21T09:25:25.616Z,100579.61
2023-05-21T09:27:56.373Z,100575.07
2023-05-21T09:30:28.525Z,100576.88
2023-05-21T09:33:00.338Z,100571.09
2023-05-21T09:35:32.139Z,100568.73
2023-05-21T09:38:04.347Z,100568.77
2023-05-21T09:40:36.552Z,100569.23
2023-05-21T09:43:05.669Z,100568.36
2023-05-21T09:45:34.999Z,100567.72
2023-05-21T09:48:04.175Z,100563.80
2023-05-21T09:50:37.053Z,100563.23
2023-05-21T09:53:12.732Z,100560.33
2023-05-21T09:55:41.983Z,100558.20
2023-05-21T09:58:10.989Z,100558.17
2023-05-21T10:00:40.340Z,100552.44
2023-05-21T10:03:14.506Z,100551.98
2023-05-21T10:05:44.056Z,100551.75
2023-05-21T10:08:14.659Z,100546.55
2023-05-21T10:10:45.019Z,100551.82
2023-05-21T10:13:18.690Z,100542.17
2023-05-21T10:15:53.707Z,100542.14
2023-05-21T10:18:24.566Z,100539.04
2023-05-21T10:20:55.521Z,100537.98
2023-05-21T10:23:25.844Z,100535.98
2023-05-21T10:25:55.406Z,100536.11
2023-05-21T10:28:24.410Z,100540.64
2023-05-21T10:30:54.507Z,100533.79
2023-05-21T10:34:15.467Z,100526.15
2023-05-21T10:36:45.924Z,100529.00
2023-05-21T10:39:20.251Z,100520.94
2023-05-21T10:42:10.226Z,100521.48
2023-05-21T10:45:17.785Z,100522.52
2023-05-21T10:48:05.498Z,100516.05
2023-05-21T10:50:59.287Z,100513.47
2023-05-21T10:54:02.468Z,100512.06
2023-05-21T10:57:06.225Z,100512.48
2023-05-21T10:59:47.954Z,100514.62
2023-05-21T11:02:20.567Z,100507.81
2023-05-21T11:05:01.058Z,100511.37
2023-05-21T11:07:58.517Z,100501.20
2023-05-21T11:10:40.099Z,100504.05
2023-05-21T11:13:14.997Z,100504.08
2023-05-21T11:16:15.677Z,100505.16
2023-05-21T11:18:47.495Z,100502.24
2023-05-21T11:21:18.738Z,100498.34
2023-05-21T11:23:55.723Z,100497.73
2023-05-21T11:26:26.463Z,100494.55
2023-05-21T11:29:03.838Z,100492.84
2023-05-21T11:31:38.597Z,100491.63
2023-05-21T11:34:40.033Z,100494.42
2023-05-21T11:37:18.028Z,100488.94
2023-05-21T11:39:47.694Z,100487.66
2023-05-21T11:42:34.074Z,100486.70
2023-05-21T11:45:04.357Z,100482.69
2023-05-21T11:47:33.206Z,100484.52
2023-05-21T11:50:03.669Z,100480.55
2023-05-21T11:52:33.341Z,100474.69
2023-05-21T11:55:02.068Z,100470.21
2023-05-21T11:57:31.371Z,100473.17
2023-05-21T12:00:02.646Z,100472.05
2023-05-21T12:02:48.478Z,100467.41
2023-05-21T12:05:17.528Z,100467.17
2023-05-21T12:07:54.812Z,100468.84
2023-05-21T12:10:24.409Z,100468.73
2023-05-21T12:12:57.026Z,100465.46
2023-05-21T12:15:27.158Z,100465.33
2023-05-21T12:17:56.339Z,100466.38
2023-05-21T12:20:30.191Z,100461.39
2023-05-21T12:22:59.733Z,100468.23
2023-05-21T12:25:30.234Z,100462.88
2023-05-21T12:27:59.069Z,100459.67
2023-05-21T12:30:30.670Z,100462.36
2023-05-21T12:33:02.421Z,100458.95
2023-05-21T12:35:32.626Z,100459.15
2023-05-21T12:38:05.540Z,100457.54
2023-05-21T12:40:39.044Z,100459.23
2023-05-21T12:43:09.172Z,100462.10
2023-05-21T12:45:39.728Z,100458.83
2023-05-21T12:48:09.210Z,100460.98
2023-05-21T12:50:42.033Z,100460.33
2023-05-21T12:53:12.536Z,100457.83
2023-05-21T12:55:41.298Z,100458.27
2023-05-21T12:58:14.357Z,100455.88
2023-05-21T13:00:44.388Z,100457.73
2023-05-21T13:03:13.269Z,100456.83
2023-05-21T13:05:42.698Z,100454.02
2023-05-21T13:08:11.688Z,100455.89
2023-05-21T13:10:40.265Z,100458.37
2023-05-21T13:13:10.269Z,100457.10
2023-05-21T13:15:39.348Z,100457.57
2023-05-21T13:18:08.011Z,100446.42
2023-05-21T13:20:37.178Z,100447.20
2023-05-21T13:23:07.704Z,100443.42
2023-05-21T13:25:38.019Z,100437.50
2023-05-21T13:28:08.970Z,100435.30
2023-05-21T13:30:37.957Z,100431.35
2023-05-21T13:33:07.319Z,100431.04
2023-05-21T13:35:36.140Z,100430.20
2023-05-21T13:38:04.935Z,100430.02
2023-05-21T13:40:38.093Z,100427.86
2023-05-21T13:43:09.166Z,100427.46
2023-05-21T13:45:45.511Z,100436.55
2023-05-21T13:48:15.894Z,100434.21
2023-05-21T13:50:46.648Z,100426.41
2023-05-21T13:53:15.483Z,100433.90
2023-05-21T13:55:45.394Z,100435.12
2023-05-21T13:58:15.290Z,100432.79
2023-05-21T14:00:43.954Z,100434.88
2023-05-21T14:03:12.463Z,100435.48
2023-05-21T14:05:41.380Z,100438.39
2023-05-21T14:08:11.625Z,100432.42
2023-05-21T14:10:42.127Z,100434.71
2023-05-21T14:13:19.167Z,100435.38
2023-05-21T14:15:50.310Z,100434.20
2023-05-21T14:18:18.715Z,100424.62
2023-05-21T14:20:47.216Z,100431.15
2023-05-21T14:23:15.698Z,100431.52
2023-05-21T14:25:44.262Z,100425.55
2023-05-21T14:28:13.680Z,100431.25
2023-05-21T14:30:42.879Z,100424.05
2023-05-21T14:33:13.637Z,100424.19
2023-05-21T14:35:44.303Z,100419.73
2023-05-21T14:38:13.596Z,100418.56
2023-05-21T14:40:42.559Z,100422.46
2023-05-21T14:43:11.026Z,100418.95
2023-05-21T14:45:39.612Z,100415.52
2023-05-21T14:48:09.590Z,100414.17
2023-05-21T14:50:39.734Z,100413.45
2023-05-21T14:53:10.063Z,100411.27
2023-05-21T14:55:39.079Z,100411.96
2023-05-21T14:58:08.523Z,100408.98
2023-05-21T15:00:38.157Z,100409.77
2023-05-21T15:03:06.826Z,100407.92
2023-05-21T15:05:36.724Z,100409.12
2023-05-21T15:08:06.365Z,100408.50
2023-05-21T15:10:35.872Z,100393.09
2023-05-21T15:13:04.645Z,100410.27
2023-05-21T15:15:33.137Z,100408.73
2023-05-21T15:18:01.639Z,100406.39
2023-05-21T15:20:29.995Z,100401.23
2023-05-21T15:25:32.602Z,100406.05
2023-05-21T15:28:01.066Z,100400.75
2023-05-21T15:30:31.846Z,100401.06
2023-05-21T15:33:00.119Z,100397.09
2023-05-21T15:35:28.950Z,100397.43
2023-05-21T15:37:57.570Z,100396.61
2023-05-21T15:40:27.252Z,100391.86
2023-05-21T15:42:55.941Z,100390.27
2023-05-21T15:45:24.962Z,100385.52
2023-05-21T15:47:53.500Z,100384.81
2023-05-21T15:50:21.997Z,100383.60
2023-05-21T15:52:52.382Z,100386.89
2023-05-21T15:55:22.017Z,100382.36
2023-05-21T15:57:50.661Z,100380.23
2023-05-21T16:00:19.447Z,100379.17
2023-05-21T16:02:48.445Z,100376.48
2023-05-21T16:05:17.329Z,100377.47
2023-05-21T16:07:46.618Z,100371.70
2023-05-21T16:10:15.001Z,100368.95
2023-05-21T16:12:43.229Z,100369.16
2023-05-21T16:15:11.756Z,100370.14
2023-05-21T16:17:41.277Z,100371.52
2023-05-21T16:20:10.251Z,100370.98
2023-05-21T16:22:38.722Z,100365.32
2023-05-21T16:25:08.406Z,100370.30
2023-05-21T16:27:37.335Z,100373.20
2023-05-21T16:30:07.671Z,100375.83
2023-05-21T16:32:36.045Z,100372.02
2023-05-21T16:35:04.992Z,100373.44
2023-05-21T16:37:34.591Z,100374.04
2023-05-21T16:40:03.017Z,100372.48
2023-05-21T16:42:31.390Z,100375.80
2023-05-21T16:45:00.109Z,100373.91
2023-05-21T16:47:29.797Z,100378.45
2023-05-21T16:49:58.990Z,100375.11
2023-05-21T16:52:27.674Z,100377.00
2023-05-21T16:54:56.450Z,100376.35
2023-05-21T16:57:24.826Z,100377.56
2023-05-21T16:59:54.164Z,100382.08
2023-05-21T17:02:25.111Z,100384.91
2023-05-21T17:04:53.860Z,100388.73
2023-05-21T17:07:22.771Z,100388.15
2023-05-21T17:09:51.780Z,100390.40
2023-05-21T17:12:21.254Z,100393.05
2023-05-21T17:14:55.890Z,100395.52
2023-05-21T17:17:29.456Z,100398.37
2023-05-21T17:19:59.493Z,100395.30
2023-05-21T17:22:28.894Z,100398.92
2023-05-21T17:24:57.582Z,100397.94
2023-05-21T17:27:26.074Z,100402.42
2023-05-21T17:29:54.868Z,100399.29
2023-05-21T17:32:23.777Z,100394.27
2023-05-21T17:34:54.282Z,100392.02
2023-05-21T17:37:23.081Z,100390.30
2023-05-21T17:39:52.235Z,100390.80
2023-05-21T17:42:20.975Z,100396.68
2023-05-21T17:44:49.742Z,100395.61
2023-05-21T17:47:19.349Z,100394.41
2023-05-21T17:49:48.025Z,100395.34
2023-05-21T17:52:17.029Z,100394.33
2023-05-21T17:54:46.120Z,100394.06
2023-05-21T17:57:16.422Z,100397.15
2023-05-21T17:59:46.075Z,100400.02
2023-05-21T18:02:15.650Z,100404.82
2023-05-21T18:04:44.789Z,100410.85
2023-05-21T18:07:13.446Z,100409.73
2023-05-21T18:09:43.285Z,100414.36
2023-05-21T18:12:12.468Z,100418.73
2023-05-21T18:14:41.036Z,100424.10
2023-05-21T18:17:09.945Z,100422.16
2023-05-21T18:19:38.608Z,100422.83
2023-05-21T18:22:19.716Z,100422.36
2023-05-21T18:24:50.530Z,100425.35
2023-05-21T18:27:19.104Z,100421.96
2023-05-21T18:29:49.556Z,100422.56
2023-05-21T18:32:18.156Z,100421.35
2023-05-21T18:34:48.142Z,100422.31
2023-05-21T18:37:17.426Z,100419.28
2023-05-21T18:39:46.371Z,100419.32
2023-05-21T18:42:15.570Z,100417.73
2023-05-21T18:44:46.788Z,100413.94
2023-05-21T18:47:15.917Z,100412.90
2023-05-21T18:49:46.296Z,100416.73
2023-05-21T18:52:15.704Z,100413.54
2023-05-21T18:54:44.836Z,100415.04
2023-05-21T18:57:14.198Z,100414.84
2023-05-21T18:59:43.984Z,100419.61
2023-05-21T19:02:14.503Z,100419.94
2023-05-21T19:04:44.618Z,100420.52
2023-05-21T19:07:14.369Z,100421.14
2023-05-21T19:09:43.576Z,100418.80
2023-05-21T19:12:12.463Z,100421.76
2023-05-21T19:14:45.456Z,100421.34
2023-05-21T19:17:15.368Z,100422.55
2023-05-21T19:19:44.770Z,100421.53
2023-05-21T19:22:14.064Z,100425.53
2023-05-21T19:24:45.721Z,100426.89
2023-05-21T19:27:18.486Z,100426.77
2023-05-21T19:29:49.140Z,100424.59
2023-05-21T19:32:21.137Z,100423.79
2023-05-21T19:34:52.930Z,100426.54
2023-05-21T19:37:26.882Z,100423.50
2023-05-21T19:39:57.306Z,100420.88
2023-05-21T19:42:27.141Z,100423.30
2023-05-21T19:44:57.051Z,100424.34
2023-05-21T19:47:26.927Z,100418.81
2023-05-21T19:49:57.209Z,100418.05
2023-05-21T19:52:27.249Z,100420.23
2023-05-21T19:55:04.999Z,100421.08
2023-05-21T19:57:35.077Z,100421.55
2023-05-21T20:00:05.761Z,100421.15
2023-05-21T20:02:41.617Z,100421.58
2023-05-21T20:05:11.880Z,100419.27
2023-05-21T20:07:42.132Z,100416.76
2023-05-21T20:10:12.070Z,100414.47
2023-05-21T20:12:41.763Z,100417.15
2023-05-21T20:15:13.746Z,100419.60
2023-05-21T20:17:44.527Z,100416.44
2023-05-21T20:20:14.947Z,100417.76
2023-05-21T20:22:45.472Z,100415.90
2023-05-21T20:25:15.540Z,100411.48
2023-05-21T20:27:44.935Z,100406.58
2023-05-21T20:30:14.463Z,100403.55
2023-05-21T20:32:43.270Z,100402.86
2023-05-21T20:35:13.234Z,100404.40
2023-05-21T20:37:42.532Z,100405.86
2023-05-21T20:40:14.675Z,100405.52
2023-05-21T20:42:45.655Z,100404.22
2023-05-21T20:45:16.578Z,100401.80
2023-05-21T20:47:47.530Z,100403.54
2023-05-21T20:50:18.003Z,100402.20
2023-05-21T20:52:47.407Z,100401.28
2023-05-21T20:55:17.260Z,100401.23
2023-05-21T20:57:47.878Z,100401.80
2023-05-21T21:00:17.295Z,100398.44
2023-05-21T21:02:46.514Z,100398.70
2023-05-21T21:05:17.044Z,100402.54
2023-05-21T21:07:46.105Z,100409.98
2023-05-21T21:10:15.667Z,100406.85
2023-05-21T21:12:44.931Z,100405.87
2023-05-21T21:15:14.127Z,100405.58
2023-05-21T21:17:42.922Z,100404.94
2023-05-21T21:20:13.832Z,100402.59
2023-05-21T21:22:42.534Z,100402.58
2023-05-21T21:25:11.638Z,100403.81
2023-05-21T21:27:40.512Z,100409.35
2023-05-21T21:30:12.309Z,100407.44
2023-05-21T21:32:41.630Z,100409.46
2023-05-21T21:35:11.018Z,100409.14
2023-05-21T21:37:40.021Z,100410.33
2023-05-21T21:40:12.681Z,100414.80
2023-05-21T21:42:42.770Z,100417.40
2023-05-21T21:45:11.761Z,100417.52
2023-05-21T21:47:40.456Z,100413.80
2023-05-21T21:50:09.753Z,100419.70
2023-05-21T21:52:41.935Z,100419.48
2023-05-21T21:55:11.434Z,100419.40
2023-05-21T21:57:40.221Z,100428.06
2023-05-21T22:00:11.582Z,100424.17
2023-05-21T22:02:40.535Z,100425.88
2023-05-21T22:05:09.766Z,100424.44
2023-05-21T22:07:39.026Z,100423.70
2023-05-21T22:10:09.049Z,100427.02
2023-05-21T22:12:38.270Z,100426.63
2023-05-21T22:15:08.130Z,100425.95
2023-05-21T22:17:39.397Z,100422.81
2023-05-21T22:20:10.632Z,100422.08
2023-05-21T22:22:41.613Z,100421.32
2023-05-21T22:25:10.523Z,100420.57
2023-05-21T22:27:42.453Z,100421.81
2023-05-21T22:30:11.773Z,100421.00
2023-05-21T22:32:43.474Z,100424.96
2023-05-21T22:35:12.944Z,100422.45
2023-05-21T22:37:44.182Z,100425.52
2023-05-21T22:40:17.988Z,100425.31
2023-05-21T22:42:49.235Z,100425.00
2023-05-21T22:45:24.077Z,100425.37
2023-05-21T22:47:56.990Z,100425.58
2023-05-21T22:50:41.689Z,100425.96
2023-05-21T22:53:10.711Z,100426.71
2023-05-21T22:55:42.585Z,100426.70
2023-05-21T22:58:14.280Z,100427.02
2023-05-21T23:00:44.450Z,100424.88
2023-05-21T23:03:13.782Z,100422.28
2023-05-21T23:05:43.020Z,100421.04
2023-05-21T23:08:11.946Z,100420.77
2023-05-21T23:10:42.984Z,100420.14
2023-05-21T23:13:13.027Z,100419.72
2023-05-21T23:15:44.575Z,100407.18
2023-05-21T23:18:13.614Z,100417.33
2023-05-21T23:20:43.997Z,100415.18
2023-05-21T23:23:18.390Z,100412.45
2023-05-21T23:25:48.097Z,100412.27
2023-05-21T23:28:20.755Z,100413.06
2023-05-21T23:30:49.578Z,100411.73
2023-05-21T23:33:18.663Z,100411.67
2023-05-21T23:35:47.682Z,100408.98
2023-05-21T23:38:16.241Z,100410.20
2023-05-21T23:40:45.022Z,100410.71
2023-05-21T23:43:13.822Z,100409.79
2023-05-21T23:45:42.837Z,100407.23
2023-05-21T23:48:14.184Z,100409.09
2023-05-21T23:50:43.695Z,100408.66
2023-05-21T23:53:15.331Z,100410.23
2023-05-21T23:55:47.699Z,100412.49
2023-05-21T23:58:16.685Z,100407.54
